Empire, Michigan
Current Conditions -  °F | °C
As of 7:52 PM on Wednesday 17 Dec 2014 (Local Time) from KFKS Reporting Station
Overcast Overcast  
Wind Chill: 22°   Ceiling: 1900
Heat Index: 31°   Visibility: 10mi
Dew Point: 26°   Wind: 9mph
Humidity: 83%   Direction: 320°NW
Pressure: 30.13"   Gusts: 18mph
Location:  44.81°N, 86.06°W
Report Text: KFKS 180052Z AUTO 32008G16KT 10SM OVC019 M01/M03 A3013 RMK AO2 T10081033
Loading
Personal Weather Stations






























Interactive Weather Map New forecast layout! Learn more

10-Day Weather Forecast

Advertisements
Track Severe Weather on mobile